sensor_id;sensor_type;location;lat;lon;timestamp;P1;durP1;ratioP1;P2;durP2;ratioP2
77978;SDS011;67169;50.268;8.694;2023-12-20T00:00:10;5.82;;;4.05;;
77978;SDS011;67169;50.268;8.694;2023-12-20T00:02:37;8.52;;;4.55;;
77978;SDS011;67169;50.268;8.694;2023-12-20T00:05:04;10.82;;;4.22;;
77978;SDS011;67169;50.268;8.694;2023-12-20T00:07:33;7.38;;;4.13;;
77978;SDS011;67169;50.268;8.694;2023-12-20T00:09:59;9.43;;;4.65;;
77978;SDS011;67169;50.268;8.694;2023-12-20T00:12:26;7.50;;;3.70;;
77978;SDS011;67169;50.268;8.694;2023-12-20T00:14:52;6.68;;;4.18;;
77978;SDS011;67169;50.268;8.694;2023-12-20T00:17:19;9.55;;;4.68;;
77978;SDS011;67169;50.268;8.694;2023-12-20T00:19:46;6.97;;;4.30;;
77978;SDS011;67169;50.268;8.694;2023-12-20T00:22:12;7.57;;;4.95;;
77978;SDS011;67169;50.268;8.694;2023-12-20T00:24:40;6.47;;;3.53;;
77978;SDS011;67169;50.268;8.694;2023-12-20T00:27:07;7.15;;;3.78;;
77978;SDS011;67169;50.268;8.694;2023-12-20T00:29:33;8.55;;;4.20;;
77978;SDS011;67169;50.268;8.694;2023-12-20T00:32:00;6.00;;;2.92;;
77978;SDS011;67169;50.268;8.694;2023-12-20T00:34:27;5.75;;;3.58;;
77978;SDS011;67169;50.268;8.694;2023-12-20T00:36:53;5.47;;;2.67;;
77978;SDS011;67169;50.268;8.694;2023-12-20T00:39:20;6.88;;;3.85;;
77978;SDS011;67169;50.268;8.694;2023-12-20T00:41:48;8.10;;;4.32;;
77978;SDS011;67169;50.268;8.694;2023-12-20T00:44:14;6.25;;;3.65;;
77978;SDS011;67169;50.268;8.694;2023-12-20T00:46:41;6.93;;;3.97;;
77978;SDS011;67169;50.268;8.694;2023-12-20T00:49:07;8.30;;;3.90;;
77978;SDS011;67169;50.268;8.694;2023-12-20T00:51:34;4.90;;;2.67;;
77978;SDS011;67169;50.268;8.694;2023-12-20T00:54:00;7.43;;;3.80;;
77978;SDS011;67169;50.268;8.694;2023-12-20T00:56:27;10.02;;;4.20;;
77978;SDS011;67169;50.268;8.694;2023-12-20T00:58:55;5.60;;;3.08;;
77978;SDS011;67169;50.268;8.694;2023-12-20T01:01:22;6.53;;;3.35;;
77978;SDS011;67169;50.268;8.694;2023-12-20T01:03:48;5.20;;;3.47;;
77978;SDS011;67169;50.268;8.694;2023-12-20T01:06:16;9.18;;;4.40;;
77978;SDS011;67169;50.268;8.694;2023-12-20T01:08:42;5.40;;;3.47;;
77978;SDS011;67169;50.268;8.694;2023-12-20T01:11:09;11.20;;;3.97;;
77978;SDS011;67169;50.268;8.694;2023-12-20T01:13:36;7.78;;;4.00;;
77978;SDS011;67169;50.268;8.694;2023-12-20T01:16:04;7.93;;;4.25;;
77978;SDS011;67169;50.268;8.694;2023-12-20T01:18:31;4.88;;;3.40;;
77978;SDS011;67169;50.268;8.694;2023-12-20T01:21:00;7.78;;;4.35;;
77978;SDS011;67169;50.268;8.694;2023-12-20T01:23:28;5.97;;;3.60;;
77978;SDS011;67169;50.268;8.694;2023-12-20T01:25:54;7.30;;;4.22;;
77978;SDS011;67169;50.268;8.694;2023-12-20T01:28:21;9.00;;;3.97;;
77978;SDS011;67169;50.268;8.694;2023-12-20T01:30:47;6.15;;;3.60;;
77978;SDS011;67169;50.268;8.694;2023-12-20T01:33:15;10.60;;;4.68;;
77978;SDS011;67169;50.268;8.694;2023-12-20T01:35:42;8.20;;;3.92;;
77978;SDS011;67169;50.268;8.694;2023-12-20T01:38:08;4.50;;;3.33;;
77978;SDS011;67169;50.268;8.694;2023-12-20T01:40:35;6.38;;;3.85;;
77978;SDS011;67169;50.268;8.694;2023-12-20T01:43:03;5.35;;;3.28;;
77978;SDS011;67169;50.268;8.694;2023-12-20T01:45:33;7.97;;;3.58;;
77978;SDS011;67169;50.268;8.694;2023-12-20T01:48:00;4.88;;;3.47;;
77978;SDS011;67169;50.268;8.694;2023-12-20T01:50:30;6.53;;;4.00;;
77978;SDS011;67169;50.268;8.694;2023-12-20T01:52:57;5.70;;;3.58;;
77978;SDS011;67169;50.268;8.694;2023-12-20T01:55:26;4.50;;;3.03;;
77978;SDS011;67169;50.268;8.694;2023-12-20T01:57:55;7.88;;;4.18;;
77978;SDS011;67169;50.268;8.694;2023-12-20T02:00:23;8.30;;;4.20;;
77978;SDS011;67169;50.268;8.694;2023-12-20T02:02:52;5.75;;;3.85;;
77978;SDS011;67169;50.268;8.694;2023-12-20T02:05:20;13.13;;;4.53;;
77978;SDS011;67169;50.268;8.694;2023-12-20T02:07:48;5.97;;;3.17;;
77978;SDS011;67169;50.268;8.694;2023-12-20T02:10:15;6.75;;;4.10;;
77978;SDS011;67169;50.268;8.694;2023-12-20T02:12:42;7.50;;;4.80;;
77978;SDS011;67169;50.268;8.694;2023-12-20T02:15:08;7.18;;;4.00;;
77978;SDS011;67169;50.268;8.694;2023-12-20T02:17:35;4.60;;;3.40;;
77978;SDS011;67169;50.268;8.694;2023-12-20T02:20:02;7.95;;;4.20;;
77978;SDS011;67169;50.268;8.694;2023-12-20T02:22:32;4.47;;;3.38;;
77978;SDS011;67169;50.268;8.694;2023-12-20T02:24:58;5.03;;;2.53;;
77978;SDS011;67169;50.268;8.694;2023-12-20T02:27:25;5.22;;;3.00;;
77978;SDS011;67169;50.268;8.694;2023-12-20T02:29:52;10.38;;;5.00;;
77978;SDS011;67169;50.268;8.694;2023-12-20T02:32:18;7.05;;;3.20;;
77978;SDS011;67169;50.268;8.694;2023-12-20T02:34:46;6.63;;;4.15;;
77978;SDS011;67169;50.268;8.694;2023-12-20T02:37:14;7.90;;;3.78;;
77978;SDS011;67169;50.268;8.694;2023-12-20T02:39:42;5.55;;;3.38;;
77978;SDS011;67169;50.268;8.694;2023-12-20T02:42:08;7.75;;;4.40;;
77978;SDS011;67169;50.268;8.694;2023-12-20T02:44:35;5.45;;;3.85;;
77978;SDS011;67169;50.268;8.694;2023-12-20T02:47:01;5.55;;;2.97;;
77978;SDS011;67169;50.268;8.694;2023-12-20T02:49:28;7.57;;;4.38;;
77978;SDS011;67169;50.268;8.694;2023-12-20T02:51:55;8.90;;;3.50;;
77978;SDS011;67169;50.268;8.694;2023-12-20T02:54:21;7.57;;;3.25;;
77978;SDS011;67169;50.268;8.694;2023-12-20T02:56:49;4.25;;;2.60;;
77978;SDS011;67169;50.268;8.694;2023-12-20T02:59:16;6.82;;;4.13;;
77978;SDS011;67169;50.268;8.694;2023-12-20T03:01:43;5.35;;;3.88;;
77978;SDS011;67169;50.268;8.694;2023-12-20T03:04:10;6.93;;;3.55;;
77978;SDS011;67169;50.268;8.694;2023-12-20T03:06:37;8.00;;;3.80;;
77978;SDS011;67169;50.268;8.694;2023-12-20T03:09:04;8.60;;;3.75;;
77978;SDS011;67169;50.268;8.694;2023-12-20T03:11:30;5.97;;;3.38;;
77978;SDS011;67169;50.268;8.694;2023-12-20T03:13:58;5.03;;;3.10;;
77978;SDS011;67169;50.268;8.694;2023-12-20T03:16:25;5.50;;;3.88;;
77978;SDS011;67169;50.268;8.694;2023-12-20T03:18:52;5.90;;;3.78;;
77978;SDS011;67169;50.268;8.694;2023-12-20T03:21:18;8.85;;;4.82;;
77978;SDS011;67169;50.268;8.694;2023-12-20T03:23:45;6.93;;;3.35;;
77978;SDS011;67169;50.268;8.694;2023-12-20T03:26:11;6.03;;;3.35;;
77978;SDS011;67169;50.268;8.694;2023-12-20T03:28:38;8.18;;;4.07;;
77978;SDS011;67169;50.268;8.694;2023-12-20T03:31:06;7.15;;;3.20;;
77978;SDS011;67169;50.268;8.694;2023-12-20T03:33:33;8.20;;;3.67;;
77978;SDS011;67169;50.268;8.694;2023-12-20T03:35:59;7.28;;;3.88;;
77978;SDS011;67169;50.268;8.694;2023-12-20T03:38:26;6.68;;;3.47;;
77978;SDS011;67169;50.268;8.694;2023-12-20T03:40:52;8.90;;;4.25;;
77978;SDS011;67169;50.268;8.694;2023-12-20T03:43:19;6.65;;;3.38;;
77978;SDS011;67169;50.268;8.694;2023-12-20T03:45:45;5.10;;;3.40;;
77978;SDS011;67169;50.268;8.694;2023-12-20T03:48:13;5.68;;;3.65;;
77978;SDS011;67169;50.268;8.694;2023-12-20T03:50:40;7.28;;;3.97;;
77978;SDS011;67169;50.268;8.694;2023-12-20T03:53:07;5.80;;;3.28;;
77978;SDS011;67169;50.268;8.694;2023-12-20T03:55:33;4.35;;;2.35;;
77978;SDS011;67169;50.268;8.694;2023-12-20T03:58:00;3.75;;;2.65;;
77978;SDS011;67169;50.268;8.694;2023-12-20T04:00:26;3.85;;;2.45;;
77978;SDS011;67169;50.268;8.694;2023-12-20T04:02:53;4.50;;;2.60;;
77978;SDS011;67169;50.268;8.694;2023-12-20T04:05:21;3.20;;;2.58;;
77978;SDS011;67169;50.268;8.694;2023-12-20T04:07:47;2.95;;;1.67;;
77978;SDS011;67169;50.268;8.694;2023-12-20T04:10:15;3.70;;;1.83;;
77978;SDS011;67169;50.268;8.694;2023-12-20T04:12:42;2.53;;;1.52;;
77978;SDS011;67169;50.268;8.694;2023-12-20T04:15:08;3.28;;;2.08;;
77978;SDS011;67169;50.268;8.694;2023-12-20T04:17:37;4.90;;;2.90;;
77978;SDS011;67169;50.268;8.694;2023-12-20T04:20:04;4.70;;;1.80;;
77978;SDS011;67169;50.268;8.694;2023-12-20T04:22:32;5.13;;;3.22;;
77978;SDS011;67169;50.268;8.694;2023-12-20T04:24:59;5.15;;;2.75;;
77978;SDS011;67169;50.268;8.694;2023-12-20T04:27:25;5.78;;;3.28;;
77978;SDS011;67169;50.268;8.694;2023-12-20T04:29:52;5.10;;;2.78;;
77978;SDS011;67169;50.268;8.694;2023-12-20T04:32:19;7.55;;;3.50;;
77978;SDS011;67169;50.268;8.694;2023-12-20T04:34:45;4.47;;;2.47;;
77978;SDS011;67169;50.268;8.694;2023-12-20T04:37:12;5.90;;;2.40;;
77978;SDS011;67169;50.268;8.694;2023-12-20T04:39:40;4.40;;;2.72;;
77978;SDS011;67169;50.268;8.694;2023-12-20T04:42:07;6.47;;;4.57;;
77978;SDS011;67169;50.268;8.694;2023-12-20T04:44:34;3.13;;;2.53;;
77978;SDS011;67169;50.268;8.694;2023-12-20T04:47:00;2.50;;;1.58;;
77978;SDS011;67169;50.268;8.694;2023-12-20T04:49:27;4.05;;;2.42;;
77978;SDS011;67169;50.268;8.694;2023-12-20T04:51:53;4.30;;;2.78;;
77978;SDS011;67169;50.268;8.694;2023-12-20T04:54:20;3.35;;;1.52;;
77978;SDS011;67169;50.268;8.694;2023-12-20T04:56:49;2.30;;;1.52;;
77978;SDS011;67169;50.268;8.694;2023-12-20T04:59:15;1.98;;;1.50;;
77978;SDS011;67169;50.268;8.694;2023-12-20T05:01:42;1.92;;;1.23;;
77978;SDS011;67169;50.268;8.694;2023-12-20T05:04:08;2.70;;;1.60;;
77978;SDS011;67169;50.268;8.694;2023-12-20T05:06:35;2.03;;;1.40;;
77978;SDS011;67169;50.268;8.694;2023-12-20T05:09:02;3.88;;;1.05;;
77978;SDS011;67169;50.268;8.694;2023-12-20T05:11:29;1.05;;;0.95;;
77978;SDS011;67169;50.268;8.694;2023-12-20T05:13:57;4.90;;;1.45;;
77978;SDS011;67169;50.268;8.694;2023-12-20T05:16:23;2.50;;;0.80;;
77978;SDS011;67169;50.268;8.694;2023-12-20T05:18:50;1.75;;;0.88;;
77978;SDS011;67169;50.268;8.694;2023-12-20T05:21:17;2.97;;;0.90;;
77978;SDS011;67169;50.268;8.694;2023-12-20T05:23:44;1.17;;;0.90;;
77978;SDS011;67169;50.268;8.694;2023-12-20T05:26:11;3.03;;;0.90;;
77978;SDS011;67169;50.268;8.694;2023-12-20T05:28:38;4.80;;;0.90;;
77978;SDS011;67169;50.268;8.694;2023-12-20T05:31:06;0.82;;;0.70;;
77978;SDS011;67169;50.268;8.694;2023-12-20T05:33:33;4.38;;;1.10;;
77978;SDS011;67169;50.268;8.694;2023-12-20T05:35:59;2.83;;;0.63;;
77978;SDS011;67169;50.268;8.694;2023-12-20T05:38:26;0.63;;;0.50;;
77978;SDS011;67169;50.268;8.694;2023-12-20T05:40:53;0.77;;;0.68;;
77978;SDS011;67169;50.268;8.694;2023-12-20T05:43:19;1.17;;;0.43;;
77978;SDS011;67169;50.268;8.694;2023-12-20T05:45:46;3.35;;;0.73;;
77978;SDS011;67169;50.268;8.694;2023-12-20T05:48:14;1.00;;;0.88;;
77978;SDS011;67169;50.268;8.694;2023-12-20T05:50:40;2.20;;;0.85;;
77978;SDS011;67169;50.268;8.694;2023-12-20T05:53:07;0.80;;;0.43;;
77978;SDS011;67169;50.268;8.694;2023-12-20T05:55:34;0.85;;;0.70;;
77978;SDS011;67169;50.268;8.694;2023-12-20T05:58:00;0.70;;;0.32;;
77978;SDS011;67169;50.268;8.694;2023-12-20T06:00:28;0.60;;;0.50;;
77978;SDS011;67169;50.268;8.694;2023-12-20T06:02:54;3.05;;;1.08;;
77978;SDS011;67169;50.268;8.694;2023-12-20T06:05:22;3.85;;;0.85;;
77978;SDS011;67169;50.268;8.694;2023-12-20T06:07:49;5.70;;;1.38;;
77978;SDS011;67169;50.268;8.694;2023-12-20T06:10:15;1.13;;;0.55;;
77978;SDS011;67169;50.268;8.694;2023-12-20T06:12:42;1.17;;;0.50;;
77978;SDS011;67169;50.268;8.694;2023-12-20T06:15:09;2.50;;;0.73;;
77978;SDS011;67169;50.268;8.694;2023-12-20T06:17:36;1.83;;;0.50;;
77978;SDS011;67169;50.268;8.694;2023-12-20T06:20:03;2.95;;;1.17;;
77978;SDS011;67169;50.268;8.694;2023-12-20T06:22:34;1.45;;;0.38;;
77978;SDS011;67169;50.268;8.694;2023-12-20T06:25:01;3.03;;;0.73;;
77978;SDS011;67169;50.268;8.694;2023-12-20T06:27:28;0.63;;;0.38;;
77978;SDS011;67169;50.268;8.694;2023-12-20T06:29:54;1.30;;;0.50;;
77978;SDS011;67169;50.268;8.694;2023-12-20T06:32:22;4.72;;;0.60;;
77978;SDS011;67169;50.268;8.694;2023-12-20T06:34:49;2.03;;;0.60;;
77978;SDS011;67169;50.268;8.694;2023-12-20T06:37:16;3.90;;;0.80;;
77978;SDS011;67169;50.268;8.694;2023-12-20T06:39:43;1.83;;;0.80;;
77978;SDS011;67169;50.268;8.694;2023-12-20T06:42:12;4.25;;;0.82;;
77978;SDS011;67169;50.268;8.694;2023-12-20T06:44:39;3.50;;;0.93;;
77978;SDS011;67169;50.268;8.694;2023-12-20T06:47:05;2.15;;;0.52;;
77978;SDS011;67169;50.268;8.694;2023-12-20T06:49:32;0.65;;;0.52;;
77978;SDS011;67169;50.268;8.694;2023-12-20T06:51:58;3.08;;;1.13;;
77978;SDS011;67169;50.268;8.694;2023-12-20T06:54:25;2.55;;;0.95;;
77978;SDS011;67169;50.268;8.694;2023-12-20T06:56:53;2.42;;;1.02;;
77978;SDS011;67169;50.268;8.694;2023-12-20T06:59:20;1.40;;;0.70;;
77978;SDS011;67169;50.268;8.694;2023-12-20T07:01:47;2.15;;;0.80;;
77978;SDS011;67169;50.268;8.694;2023-12-20T07:04:14;2.15;;;0.70;;
77978;SDS011;67169;50.268;8.694;2023-12-20T07:06:41;6.60;;;0.80;;
77978;SDS011;67169;50.268;8.694;2023-12-20T07:09:08;4.53;;;0.88;;
77978;SDS011;67169;50.268;8.694;2023-12-20T07:11:35;3.03;;;0.82;;
77978;SDS011;67169;50.268;8.694;2023-12-20T07:14:03;3.00;;;0.40;;
77978;SDS011;67169;50.268;8.694;2023-12-20T07:16:29;1.48;;;0.75;;
77978;SDS011;67169;50.268;8.694;2023-12-20T07:18:56;5.00;;;1.35;;
77978;SDS011;67169;50.268;8.694;2023-12-20T07:21:23;2.10;;;0.50;;
77978;SDS011;67169;50.268;8.694;2023-12-20T07:23:48;3.10;;;0.70;;
77978;SDS011;67169;50.268;8.694;2023-12-20T07:26:15;4.75;;;1.05;;
77978;SDS011;67169;50.268;8.694;2023-12-20T07:28:41;4.32;;;0.85;;
77978;SDS011;67169;50.268;8.694;2023-12-20T07:31:09;2.65;;;1.25;;
77978;SDS011;67169;50.268;8.694;2023-12-20T07:33:36;3.40;;;1.35;;
77978;SDS011;67169;50.268;8.694;2023-12-20T07:36:03;3.20;;;0.85;;
77978;SDS011;67169;50.268;8.694;2023-12-20T07:38:29;2.67;;;0.75;;
77978;SDS011;67169;50.268;8.694;2023-12-20T07:40:56;2.45;;;1.02;;
77978;SDS011;67169;50.268;8.694;2023-12-20T07:43:23;0.80;;;0.80;;
77978;SDS011;67169;50.268;8.694;2023-12-20T07:45:49;3.97;;;1.10;;
77978;SDS011;67169;50.268;8.694;2023-12-20T07:48:17;1.00;;;0.73;;
77978;SDS011;67169;50.268;8.694;2023-12-20T07:50:44;3.58;;;1.73;;
77978;SDS011;67169;50.268;8.694;2023-12-20T07:53:10;3.65;;;1.00;;
77978;SDS011;67169;50.268;8.694;2023-12-20T07:55:37;1.10;;;0.63;;
77978;SDS011;67169;50.268;8.694;2023-12-20T07:58:05;2.75;;;0.80;;
77978;SDS011;67169;50.268;8.694;2023-12-20T08:00:31;0.80;;;0.80;;
77978;SDS011;67169;50.268;8.694;2023-12-20T08:02:58;1.55;;;0.90;;
77978;SDS011;67169;50.268;8.694;2023-12-20T08:05:26;1.27;;;1.17;;
77978;SDS011;67169;50.268;8.694;2023-12-20T08:07:52;4.97;;;0.82;;
77978;SDS011;67169;50.268;8.694;2023-12-20T08:10:19;4.95;;;1.15;;
77978;SDS011;67169;50.268;8.694;2023-12-20T08:12:45;1.42;;;0.85;;
77978;SDS011;67169;50.268;8.694;2023-12-20T08:15:12;3.97;;;1.23;;
77978;SDS011;67169;50.268;8.694;2023-12-20T08:17:39;1.50;;;0.93;;
77978;SDS011;67169;50.268;8.694;2023-12-20T08:20:06;6.20;;;1.27;;
77978;SDS011;67169;50.268;8.694;2023-12-20T08:22:35;2.30;;;1.50;;
77978;SDS011;67169;50.268;8.694;2023-12-20T08:25:01;1.48;;;1.30;;
77978;SDS011;67169;50.268;8.694;2023-12-20T08:27:28;4.57;;;1.50;;
77978;SDS011;67169;50.268;8.694;2023-12-20T08:29:56;1.00;;;0.90;;
77978;SDS011;67169;50.268;8.694;2023-12-20T08:32:24;4.35;;;0.90;;
77978;SDS011;67169;50.268;8.694;2023-12-20T08:34:51;2.85;;;1.30;;
77978;SDS011;67169;50.268;8.694;2023-12-20T08:37:18;1.70;;;1.10;;
77978;SDS011;67169;50.268;8.694;2023-12-20T08:39:45;4.70;;;1.52;;
77978;SDS011;67169;50.268;8.694;2023-12-20T08:42:11;3.85;;;1.10;;
77978;SDS011;67169;50.268;8.694;2023-12-20T08:44:38;2.03;;;0.57;;
77978;SDS011;67169;50.268;8.694;2023-12-20T08:47:04;4.63;;;1.17;;
77978;SDS011;67169;50.268;8.694;2023-12-20T08:49:31;1.05;;;0.77;;
77978;SDS011;67169;50.268;8.694;2023-12-20T08:51:58;2.63;;;0.73;;
77978;SDS011;67169;50.268;8.694;2023-12-20T08:54:24;1.17;;;1.00;;
77978;SDS011;67169;50.268;8.694;2023-12-20T08:56:52;6.82;;;1.17;;
77978;SDS011;67169;50.268;8.694;2023-12-20T08:59:19;3.00;;;0.60;;
77978;SDS011;67169;50.268;8.694;2023-12-20T09:01:45;4.40;;;0.60;;
77978;SDS011;67169;50.268;8.694;2023-12-20T09:04:13;0.90;;;0.73;;
77978;SDS011;67169;50.268;8.694;2023-12-20T09:06:40;1.85;;;0.77;;
77978;SDS011;67169;50.268;8.694;2023-12-20T09:09:06;4.93;;;1.05;;
77978;SDS011;67169;50.268;8.694;2023-12-20T09:11:35;0.93;;;0.50;;
77978;SDS011;67169;50.268;8.694;2023-12-20T09:14:03;1.70;;;0.50;;
77978;SDS011;67169;50.268;8.694;2023-12-20T09:16:29;0.40;;;0.40;;
77978;SDS011;67169;50.268;8.694;2023-12-20T09:18:56;2.92;;;0.88;;
77978;SDS011;67169;50.268;8.694;2023-12-20T09:21:23;2.80;;;1.00;;
77978;SDS011;67169;50.268;8.694;2023-12-20T09:23:49;1.08;;;0.50;;
77978;SDS011;67169;50.268;8.694;2023-12-20T09:26:16;1.13;;;0.75;;
77978;SDS011;67169;50.268;8.694;2023-12-20T09:28:42;1.05;;;0.50;;
77978;SDS011;67169;50.268;8.694;2023-12-20T09:31:10;3.30;;;0.40;;
77978;SDS011;67169;50.268;8.694;2023-12-20T09:33:37;8.18;;;1.50;;
77978;SDS011;67169;50.268;8.694;2023-12-20T09:36:04;2.60;;;0.77;;
77978;SDS011;67169;50.268;8.694;2023-12-20T09:38:31;3.65;;;0.98;;
77978;SDS011;67169;50.268;8.694;2023-12-20T09:40:57;1.63;;;0.85;;
77978;SDS011;67169;50.268;8.694;2023-12-20T09:43:26;4.07;;;0.60;;
77978;SDS011;67169;50.268;8.694;2023-12-20T09:45:54;3.60;;;0.60;;
77978;SDS011;67169;50.268;8.694;2023-12-20T09:48:28;1.20;;;0.75;;
77978;SDS011;67169;50.268;8.694;2023-12-20T09:50:56;4.53;;;1.00;;
77978;SDS011;67169;50.268;8.694;2023-12-20T09:53:23;0.80;;;0.50;;
77978;SDS011;67169;50.268;8.694;2023-12-20T09:55:54;1.35;;;1.05;;
77978;SDS011;67169;50.268;8.694;2023-12-20T09:58:24;3.78;;;0.95;;
77978;SDS011;67169;50.268;8.694;2023-12-20T10:00:50;5.07;;;0.60;;
77978;SDS011;67169;50.268;8.694;2023-12-20T10:03:19;3.15;;;0.88;;
77978;SDS011;67169;50.268;8.694;2023-12-20T10:05:54;0.63;;;0.55;;
77978;SDS011;67169;50.268;8.694;2023-12-20T10:08:22;3.67;;;0.90;;
77978;SDS011;67169;50.268;8.694;2023-12-20T10:10:50;4.72;;;1.08;;
77978;SDS011;67169;50.268;8.694;2023-12-20T10:13:17;5.47;;;0.57;;
77978;SDS011;67169;50.268;8.694;2023-12-20T10:15:43;2.95;;;0.93;;
77978;SDS011;67169;50.268;8.694;2023-12-20T10:18:11;0.50;;;0.25;;
77978;SDS011;67169;50.268;8.694;2023-12-20T10:23:07;2.70;;;0.50;;
77978;SDS011;67169;50.268;8.694;2023-12-20T10:25:34;0.30;;;0.25;;
77978;SDS011;67169;50.268;8.694;2023-12-20T10:28:10;3.35;;;0.63;;
77978;SDS011;67169;50.268;8.694;2023-12-20T10:30:38;1.33;;;0.32;;
77978;SDS011;67169;50.268;8.694;2023-12-20T10:33:06;1.00;;;0.50;;
77978;SDS011;67169;50.268;8.694;2023-12-20T10:35:32;1.17;;;0.52;;
77978;SDS011;67169;50.268;8.694;2023-12-20T10:38:00;5.07;;;0.50;;
77978;SDS011;67169;50.268;8.694;2023-12-20T10:40:31;3.53;;;0.82;;
77978;SDS011;67169;50.268;8.694;2023-12-20T10:43:01;5.82;;;0.70;;
77978;SDS011;67169;50.268;8.694;2023-12-20T10:45:28;2.25;;;0.73;;
77978;SDS011;67169;50.268;8.694;2023-12-20T10:47:55;3.30;;;1.02;;
77978;SDS011;67169;50.268;8.694;2023-12-20T10:50:24;0.90;;;0.38;;
77978;SDS011;67169;50.268;8.694;2023-12-20T10:52:52;3.53;;;0.60;;
77978;SDS011;67169;50.268;8.694;2023-12-20T10:55:21;4.43;;;0.60;;
77978;SDS011;67169;50.268;8.694;2023-12-20T10:57:50;2.58;;;0.88;;
77978;SDS011;67169;50.268;8.694;2023-12-20T11:00:17;1.17;;;0.32;;
77978;SDS011;67169;50.268;8.694;2023-12-20T11:02:45;1.23;;;0.50;;
77978;SDS011;67169;50.268;8.694;2023-12-20T11:05:14;2.05;;;0.80;;
77978;SDS011;67169;50.268;8.694;2023-12-20T11:07:50;1.30;;;0.63;;
77978;SDS011;67169;50.268;8.694;2023-12-20T11:10:23;3.15;;;0.30;;
77978;SDS011;67169;50.268;8.694;2023-12-20T11:12:57;7.97;;;0.50;;
77978;SDS011;67169;50.268;8.694;2023-12-20T11:15:28;3.75;;;0.68;;
77978;SDS011;67169;50.268;8.694;2023-12-20T11:17:55;5.53;;;0.65;;
77978;SDS011;67169;50.268;8.694;2023-12-20T11:20:22;1.20;;;0.73;;
77978;SDS011;67169;50.268;8.694;2023-12-20T11:22:53;1.95;;;0.40;;
77978;SDS011;67169;50.268;8.694;2023-12-20T11:25:20;1.42;;;0.43;;
77978;SDS011;67169;50.268;8.694;2023-12-20T11:28:07;2.92;;;0.30;;
77978;SDS011;67169;50.268;8.694;2023-12-20T11:30:42;0.70;;;0.40;;
77978;SDS011;67169;50.268;8.694;2023-12-20T11:33:12;2.08;;;0.70;;
77978;SDS011;67169;50.268;8.694;2023-12-20T11:35:39;1.27;;;0.50;;
77978;SDS011;67169;50.268;8.694;2023-12-20T11:38:07;2.72;;;0.43;;
77978;SDS011;67169;50.268;8.694;2023-12-20T11:40:34;1.05;;;0.35;;
77978;SDS011;67169;50.268;8.694;2023-12-20T11:43:02;3.55;;;1.27;;
77978;SDS011;67169;50.268;8.694;2023-12-20T11:45:30;1.38;;;0.80;;
77978;SDS011;67169;50.268;8.694;2023-12-20T11:47:57;5.43;;;0.98;;
77978;SDS011;67169;50.268;8.694;2023-12-20T11:50:24;2.30;;;0.50;;
77978;SDS011;67169;50.268;8.694;2023-12-20T11:52:51;2.83;;;0.73;;
77978;SDS011;67169;50.268;8.694;2023-12-20T11:57:45;4.45;;;0.73;;
77978;SDS011;67169;50.268;8.694;2023-12-20T12:00:12;2.42;;;0.50;;
77978;SDS011;67169;50.268;8.694;2023-12-20T12:02:41;0.47;;;0.30;;
77978;SDS011;67169;50.268;8.694;2023-12-20T12:05:08;1.90;;;0.38;;
77978;SDS011;67169;50.268;8.694;2023-12-20T12:07:35;1.67;;;0.57;;
77978;SDS011;67169;50.268;8.694;2023-12-20T12:10:02;2.67;;;0.57;;
77978;SDS011;67169;50.268;8.694;2023-12-20T12:12:29;3.85;;;1.33;;
77978;SDS011;67169;50.268;8.694;2023-12-20T12:14:57;0.85;;;0.40;;
77978;SDS011;67169;50.268;8.694;2023-12-20T12:17:24;1.48;;;0.60;;
77978;SDS011;67169;50.268;8.694;2023-12-20T12:19:52;0.52;;;0.52;;
77978;SDS011;67169;50.268;8.694;2023-12-20T12:22:29;0.75;;;0.45;;
77978;SDS011;67169;50.268;8.694;2023-12-20T12:24:58;1.08;;;0.38;;
77978;SDS011;67169;50.268;8.694;2023-12-20T12:27:25;2.83;;;0.45;;
77978;SDS011;67169;50.268;8.694;2023-12-20T12:30:00;1.20;;;0.50;;
77978;SDS011;67169;50.268;8.694;2023-12-20T12:32:28;0.52;;;0.20;;
77978;SDS011;67169;50.268;8.694;2023-12-20T12:34:56;1.58;;;0.40;;
77978;SDS011;67169;50.268;8.694;2023-12-20T12:39:50;1.60;;;0.32;;
77978;SDS011;67169;50.268;8.694;2023-12-20T12:42:19;2.22;;;0.70;;
77978;SDS011;67169;50.268;8.694;2023-12-20T12:44:47;0.35;;;0.35;;
77978;SDS011;67169;50.268;8.694;2023-12-20T12:47:13;0.30;;;0.30;;
77978;SDS011;67169;50.268;8.694;2023-12-20T12:49:40;1.33;;;0.50;;
77978;SDS011;67169;50.268;8.694;2023-12-20T12:52:08;1.35;;;0.85;;
77978;SDS011;67169;50.268;8.694;2023-12-20T12:54:34;0.70;;;0.35;;
77978;SDS011;67169;50.268;8.694;2023-12-20T12:57:01;0.43;;;0.30;;
77978;SDS011;67169;50.268;8.694;2023-12-20T12:59:28;1.40;;;0.50;;
77978;SDS011;67169;50.268;8.694;2023-12-20T13:01:55;0.28;;;0.28;;
77978;SDS011;67169;50.268;8.694;2023-12-20T13:04:22;0.63;;;0.50;;
77978;SDS011;67169;50.268;8.694;2023-12-20T13:06:48;2.03;;;0.20;;
77978;SDS011;67169;50.268;8.694;2023-12-20T13:09:16;0.35;;;0.35;;
77978;SDS011;67169;50.268;8.694;2023-12-20T13:11:44;3.95;;;0.65;;
77978;SDS011;67169;50.268;8.694;2023-12-20T13:14:10;2.22;;;0.70;;
77978;SDS011;67169;50.268;8.694;2023-12-20T13:16:40;0.82;;;0.28;;
77978;SDS011;67169;50.268;8.694;2023-12-20T13:19:07;0.68;;;0.68;;
77978;SDS011;67169;50.268;8.694;2023-12-20T13:21:35;1.30;;;0.77;;
77978;SDS011;67169;50.268;8.694;2023-12-20T13:24:01;0.77;;;0.70;;
77978;SDS011;67169;50.268;8.694;2023-12-20T13:26:29;0.95;;;0.60;;
77978;SDS011;67169;50.268;8.694;2023-12-20T13:28:56;2.15;;;0.80;;
77978;SDS011;67169;50.268;8.694;2023-12-20T13:31:22;0.82;;;0.82;;
77978;SDS011;67169;50.268;8.694;2023-12-20T13:33:49;2.28;;;0.50;;
77978;SDS011;67169;50.268;8.694;2023-12-20T13:36:17;4.13;;;0.75;;
77978;SDS011;67169;50.268;8.694;2023-12-20T13:38:44;1.67;;;0.63;;
77978;SDS011;67169;50.268;8.694;2023-12-20T13:41:10;3.80;;;0.65;;
77978;SDS011;67169;50.268;8.694;2023-12-20T13:43:38;0.57;;;0.50;;
77978;SDS011;67169;50.268;8.694;2023-12-20T13:46:05;1.00;;;0.50;;
77978;SDS011;67169;50.268;8.694;2023-12-20T13:48:32;2.45;;;0.68;;
77978;SDS011;67169;50.268;8.694;2023-12-20T13:50:58;1.95;;;0.55;;
77978;SDS011;67169;50.268;8.694;2023-12-20T13:53:25;0.45;;;0.32;;
77978;SDS011;67169;50.268;8.694;2023-12-20T13:55:53;3.58;;;0.65;;
77978;SDS011;67169;50.268;8.694;2023-12-20T13:58:20;2.92;;;0.60;;
77978;SDS011;67169;50.268;8.694;2023-12-20T14:00:48;2.20;;;0.77;;
77978;SDS011;67169;50.268;8.694;2023-12-20T14:03:14;4.15;;;0.63;;
77978;SDS011;67169;50.268;8.694;2023-12-20T14:05:41;1.92;;;0.55;;
77978;SDS011;67169;50.268;8.694;2023-12-20T14:08:08;3.00;;;0.70;;
77978;SDS011;67169;50.268;8.694;2023-12-20T14:10:35;1.65;;;0.40;;
77978;SDS011;67169;50.268;8.694;2023-12-20T14:13:02;1.10;;;0.70;;
77978;SDS011;67169;50.268;8.694;2023-12-20T14:15:30;2.13;;;0.50;;
77978;SDS011;67169;50.268;8.694;2023-12-20T14:18:03;0.65;;;0.30;;
77978;SDS011;67169;50.268;8.694;2023-12-20T14:20:32;3.20;;;1.17;;
77978;SDS011;67169;50.268;8.694;2023-12-20T14:23:00;0.93;;;0.43;;
77978;SDS011;67169;50.268;8.694;2023-12-20T14:25:26;1.10;;;0.70;;
77978;SDS011;67169;50.268;8.694;2023-12-20T14:27:55;1.35;;;1.05;;
77978;SDS011;67169;50.268;8.694;2023-12-20T14:30:23;1.50;;;0.65;;
77978;SDS011;67169;50.268;8.694;2023-12-20T14:32:50;1.20;;;0.38;;
77978;SDS011;67169;50.268;8.694;2023-12-20T14:35:18;0.70;;;0.40;;
77978;SDS011;67169;50.268;8.694;2023-12-20T14:37:44;1.08;;;0.82;;
77978;SDS011;67169;50.268;8.694;2023-12-20T14:40:11;0.98;;;0.50;;
77978;SDS011;67169;50.268;8.694;2023-12-20T14:42:41;4.80;;;1.10;;
77978;SDS011;67169;50.268;8.694;2023-12-20T14:45:08;1.73;;;0.60;;
77978;SDS011;67169;50.268;8.694;2023-12-20T14:47:35;2.95;;;0.60;;
77978;SDS011;67169;50.268;8.694;2023-12-20T14:50:02;1.73;;;0.73;;
77978;SDS011;67169;50.268;8.694;2023-12-20T14:52:31;1.80;;;1.02;;
77978;SDS011;67169;50.268;8.694;2023-12-20T14:54:59;1.45;;;0.68;;